createdAt,value
2022-11-25T00:01:16.163Z,74.60
2022-11-25T00:03:46.086Z,72.90
2022-11-25T00:06:16.137Z,72.40
2022-11-25T00:08:45.818Z,72.40
2022-11-25T00:11:16.476Z,72.20
2022-11-25T00:13:45.793Z,72.20
2022-11-25T00:16:15.819Z,71.00
2022-11-25T00:18:46.058Z,71.70
2022-11-25T00:21:17.620Z,71.80
2022-11-25T00:23:46.373Z,72.20
2022-11-25T00:26:18.029Z,71.90
2022-11-25T00:28:47.616Z,72.30
2022-11-25T00:31:17.599Z,72.60
2022-11-25T00:33:46.782Z,74.00
2022-11-25T00:36:19.075Z,74.60
2022-11-25T00:38:47.395Z,74.70
2022-11-25T00:41:34.395Z,76.40
2022-11-25T00:44:23.368Z,75.30
2022-11-25T00:46:51.544Z,78.00
2022-11-25T00:49:19.725Z,78.00
2022-11-25T00:51:48.029Z,77.10
2022-11-25T00:54:16.245Z,76.70
2022-11-25T00:56:45.713Z,78.20
2022-11-25T00:59:13.858Z,79.10
2022-11-25T01:01:42.033Z,79.20
2022-11-25T01:04:10.518Z,79.90
2022-11-25T01:06:40.467Z,79.00
2022-11-25T01:09:09.968Z,79.10
2022-11-25T01:11:40.732Z,79.30
2022-11-25T01:14:12.042Z,79.30
2022-11-25T01:16:40.293Z,80.40
2022-11-25T01:19:09.064Z,80.20
2022-11-25T01:21:37.492Z,80.60
2022-11-25T01:24:07.315Z,80.30
2022-11-25T01:26:36.915Z,80.10
2022-11-25T01:29:07.220Z,79.60
2022-11-25T01:31:38.657Z,79.30
2022-11-25T01:34:09.123Z,79.40
2022-11-25T01:36:37.322Z,78.80
2022-11-25T01:39:06.625Z,79.10
2022-11-25T01:41:36.125Z,78.90
2022-11-25T01:44:14.434Z,78.50
2022-11-25T01:46:48.995Z,77.60
2022-11-25T01:49:20.361Z,77.40
2022-11-25T01:51:52.729Z,77.50
2022-11-25T01:54:26.266Z,77.50
2022-11-25T01:57:00.265Z,77.20
2022-11-25T01:59:30.512Z,76.70
2022-11-25T02:02:00.745Z,77.20
2022-11-25T02:04:34.809Z,77.20
2022-11-25T02:07:10.727Z,77.30
2022-11-25T02:09:42.552Z,76.10
2022-11-25T02:12:11.562Z,75.80
2022-11-25T02:14:40.327Z,76.40
2022-11-25T02:17:10.125Z,75.00
2022-11-25T02:19:57.064Z,75.00
2022-11-25T02:22:33.495Z,75.80
2022-11-25T02:25:11.733Z,76.90
2022-11-25T02:27:40.464Z,77.70
2022-11-25T02:30:09.749Z,76.30
2022-11-25T02:32:37.882Z,76.10
2022-11-25T02:35:29.097Z,75.80
2022-11-25T02:38:01.325Z,75.20
2022-11-25T02:40:31.814Z,74.60
2022-11-25T02:43:01.643Z,74.90
2022-11-25T02:45:41.203Z,74.90
2022-11-25T02:48:09.639Z,76.20
2022-11-25T02:50:37.947Z,77.00
2022-11-25T02:53:06.230Z,77.80
2022-11-25T02:55:35.805Z,76.40
2022-11-25T02:58:03.949Z,75.70
2022-11-25T03:00:32.138Z,75.30
2022-11-25T03:03:00.430Z,74.60
2022-11-25T03:05:29.014Z,75.00
2022-11-25T03:07:57.281Z,74.80
2022-11-25T03:10:26.186Z,75.10
2022-11-25T03:12:56.529Z,75.30
2022-11-25T03:15:25.205Z,75.20
2022-11-25T03:17:53.858Z,75.40
2022-11-25T03:20:22.178Z,75.00
2022-11-25T03:22:50.386Z,75.00
2022-11-25T03:25:19.068Z,74.80
2022-11-25T03:27:51.198Z,73.90
2022-11-25T03:30:24.679Z,77.50
2022-11-25T03:32:57.097Z,78.00
2022-11-25T03:35:27.429Z,77.60
2022-11-25T03:37:55.529Z,75.60
2022-11-25T03:40:23.737Z,75.20
2022-11-25T03:42:52.333Z,74.40
2022-11-25T03:45:22.717Z,73.60
2022-11-25T03:47:51.570Z,72.80
2022-11-25T03:50:19.896Z,72.40
2022-11-25T03:52:49.134Z,72.00
2022-11-25T03:55:19.437Z,72.20
2022-11-25T03:57:48.034Z,72.40
2022-11-25T04:00:16.707Z,72.00
2022-11-25T04:03:02.691Z,72.30
2022-11-25T04:05:33.177Z,72.80
2022-11-25T04:08:06.640Z,73.50
2022-11-25T04:10:36.300Z,74.20
2022-11-25T04:13:04.749Z,74.50
2022-11-25T04:15:39.028Z,74.80
2022-11-25T04:18:09.391Z,75.00
2022-11-25T04:20:37.524Z,76.50
2022-11-25T04:23:08.845Z,78.00
2022-11-25T04:25:44.062Z,78.90
2022-11-25T04:28:23.135Z,82.30
2022-11-25T04:30:51.548Z,82.10
2022-11-25T04:33:21.143Z,84.10
2022-11-25T04:35:49.891Z,82.30
2022-11-25T04:38:18.585Z,80.40
2022-11-25T04:40:47.118Z,80.50
2022-11-25T04:43:18.654Z,81.00
2022-11-25T04:46:13.171Z,80.50
2022-11-25T04:48:42.136Z,81.30
2022-11-25T04:51:10.794Z,83.70
2022-11-25T04:53:39.197Z,83.70
2022-11-25T04:56:10.288Z,82.50
2022-11-25T04:59:01.339Z,79.70
2022-11-25T05:01:30.034Z,77.80
2022-11-25T05:04:09.089Z,76.30
2022-11-25T05:06:38.099Z,76.10
2022-11-25T05:09:07.157Z,76.40
2022-11-25T05:11:38.163Z,76.90
2022-11-25T05:14:07.058Z,77.80
2022-11-25T05:16:35.589Z,78.30
2022-11-25T05:19:05.145Z,78.30
2022-11-25T05:21:35.449Z,79.00
2022-11-25T05:24:03.594Z,78.70
2022-11-25T05:26:34.058Z,79.20
2022-11-25T05:29:02.845Z,79.80
2022-11-25T05:31:33.078Z,78.80
2022-11-25T05:34:02.090Z,79.60
2022-11-25T05:36:32.064Z,79.80
2022-11-25T05:39:01.635Z,79.50
2022-11-25T05:41:50.149Z,79.40
2022-11-25T05:44:22.629Z,79.90
2022-11-25T05:46:52.133Z,80.40
2022-11-25T05:49:20.970Z,80.60
2022-11-25T05:51:51.462Z,80.80
2022-11-25T05:54:25.544Z,80.70
2022-11-25T05:56:54.144Z,80.90
2022-11-25T05:59:33.734Z,80.70
2022-11-25T06:02:10.229Z,80.40
2022-11-25T06:04:38.898Z,80.50
2022-11-25T06:07:07.469Z,79.80
2022-11-25T06:09:37.343Z,78.30
2022-11-25T06:12:05.856Z,78.20
2022-11-25T06:14:38.379Z,77.60
2022-11-25T06:17:06.587Z,77.40
2022-11-25T06:19:48.577Z,76.90
2022-11-25T06:22:16.993Z,76.70
2022-11-25T06:24:52.939Z,76.80
2022-11-25T06:27:31.974Z,77.10
2022-11-25T06:30:14.167Z,77.10
2022-11-25T06:32:47.485Z,76.90
2022-11-25T06:35:22.096Z,77.20
2022-11-25T06:37:59.032Z,77.30
2022-11-25T06:40:28.537Z,76.80
2022-11-25T06:42:56.706Z,77.10
2022-11-25T06:45:24.841Z,77.10
2022-11-25T06:47:53.688Z,77.30
2022-11-25T06:50:21.919Z,77.30
2022-11-25T06:52:50.096Z,78.20
2022-11-25T06:55:18.390Z,78.00
2022-11-25T06:57:48.008Z,77.50
2022-11-25T07:00:16.882Z,78.00
2022-11-25T07:02:48.513Z,78.40
2022-11-25T07:05:17.161Z,78.70
2022-11-25T07:07:45.452Z,77.80
2022-11-25T07:10:13.597Z,78.20
2022-11-25T07:12:41.817Z,78.30
2022-11-25T07:15:12.510Z,78.90
2022-11-25T07:17:40.706Z,78.70
2022-11-25T07:20:09.935Z,79.50
2022-11-25T07:22:38.034Z,80.40
2022-11-25T07:25:09.477Z,81.10
2022-11-25T07:27:37.655Z,81.30
2022-11-25T07:32:57.064Z,80.10
2022-11-25T07:35:25.238Z,80.10
2022-11-25T07:37:53.669Z,79.70
2022-11-25T07:40:21.977Z,79.40
2022-11-25T07:42:50.158Z,79.30
2022-11-25T07:45:18.426Z,79.40
2022-11-25T07:47:47.469Z,80.70
2022-11-25T07:50:17.151Z,82.40
2022-11-25T07:52:45.283Z,83.30
2022-11-25T07:55:13.436Z,83.40
2022-11-25T07:57:41.569Z,82.60
2022-11-25T08:00:11.116Z,83.20
2022-11-25T08:02:42.206Z,83.40
2022-11-25T08:05:11.096Z,83.40
2022-11-25T08:07:40.674Z,83.80
2022-11-25T08:10:09.959Z,84.40
2022-11-25T08:12:38.371Z,84.30
2022-11-25T08:15:07.314Z,84.50
2022-11-25T08:17:35.477Z,84.70
2022-11-25T08:20:03.657Z,85.10
2022-11-25T08:22:31.781Z,85.50
2022-11-25T08:25:01.324Z,85.60
2022-11-25T08:27:29.418Z,86.20
2022-11-25T08:29:57.533Z,86.80
2022-11-25T08:32:25.629Z,87.40
2022-11-25T08:34:53.762Z,87.70
2022-11-25T08:37:21.921Z,88.80
2022-11-25T08:39:53.549Z,89.10
2022-11-25T08:42:23.668Z,89.50
2022-11-25T08:44:54.228Z,89.70
2022-11-25T08:47:22.377Z,90.10
2022-11-25T08:49:52.984Z,90.30
2022-11-25T08:52:21.538Z,89.90
2022-11-25T08:54:49.974Z,90.00
2022-11-25T08:57:18.117Z,89.60
2022-11-25T08:59:48.134Z,89.50
2022-11-25T09:02:17.924Z,89.70
2022-11-25T09:04:46.477Z,89.80
2022-11-25T09:07:14.676Z,89.70
2022-11-25T09:09:42.836Z,89.60
2022-11-25T09:12:10.982Z,89.20
2022-11-25T09:14:40.451Z,90.10
2022-11-25T09:17:11.744Z,89.40
2022-11-25T09:19:40.177Z,89.30
2022-11-25T09:22:09.189Z,89.10
2022-11-25T09:24:37.686Z,89.10
2022-11-25T09:27:05.989Z,88.80
2022-11-25T09:29:34.273Z,88.50
2022-11-25T09:32:02.485Z,88.70
2022-11-25T09:34:32.059Z,88.10
2022-11-25T09:37:00.127Z,88.50
2022-11-25T09:39:29.953Z,88.60
2022-11-25T09:42:34.658Z,87.60
2022-11-25T09:45:30.970Z,88.60
2022-11-25T09:48:11.356Z,87.90
2022-11-25T09:50:54.968Z,87.30
2022-11-25T09:53:33.029Z,87.90
2022-11-25T09:56:04.761Z,88.00
2022-11-25T09:58:36.656Z,88.30
2022-11-25T10:01:08.074Z,87.70
2022-11-25T10:03:40.476Z,86.90
2022-11-25T10:06:16.165Z,86.80
2022-11-25T10:08:46.675Z,86.90
2022-11-25T10:11:23.823Z,86.30
2022-11-25T10:13:57.618Z,86.40
2022-11-25T10:16:35.381Z,86.60
2022-11-25T10:19:11.716Z,86.50
2022-11-25T10:21:41.499Z,86.50
2022-11-25T10:24:15.694Z,86.40
2022-11-25T10:26:46.466Z,87.70
2022-11-25T10:29:27.486Z,87.60
2022-11-25T10:32:21.616Z,87.60
2022-11-25T10:34:53.974Z,87.10
2022-11-25T10:37:28.692Z,86.70
2022-11-25T10:39:56.884Z,86.10
2022-11-25T10:42:26.799Z,86.40
2022-11-25T10:44:55.893Z,86.00
2022-11-25T10:47:37.059Z,85.90
2022-11-25T10:50:14.975Z,85.70
2022-11-25T10:52:50.949Z,86.30
2022-11-25T10:55:21.741Z,86.10
2022-11-25T10:57:49.923Z,86.90
2022-11-25T11:00:31.825Z,86.40
2022-11-25T11:03:02.079Z,86.10
2022-11-25T11:05:32.037Z,85.90
2022-11-25T11:08:20.461Z,85.70
2022-11-25T11:11:08.782Z,86.60
2022-11-25T11:13:36.900Z,86.70
2022-11-25T11:16:05.728Z,87.80
2022-11-25T11:18:42.614Z,87.40
2022-11-25T11:21:30.018Z,87.30
2022-11-25T11:24:00.890Z,87.00
2022-11-25T11:26:30.709Z,86.40
2022-11-25T11:29:01.709Z,86.00
2022-11-25T11:31:33.716Z,86.10
2022-11-25T11:34:19.541Z,86.20
2022-11-25T11:37:01.157Z,85.90
2022-11-25T11:39:46.666Z,86.60
2022-11-25T11:42:20.450Z,86.00
2022-11-25T11:45:06.246Z,86.40
2022-11-25T11:47:45.093Z,86.60
2022-11-25T11:50:27.433Z,86.80
2022-11-25T11:53:04.746Z,88.30
2022-11-25T11:56:12.222Z,88.80
2022-11-25T11:58:55.275Z,89.30
2022-11-25T12:01:49.638Z,89.10
2022-11-25T12:04:23.635Z,88.50
2022-11-25T12:07:01.546Z,88.90
2022-11-25T12:09:32.946Z,89.30
2022-11-25T12:12:06.640Z,89.20
2022-11-25T12:14:45.097Z,88.70
2022-11-25T12:17:19.703Z,87.80
2022-11-25T12:19:56.167Z,87.10
2022-11-25T12:22:30.449Z,87.00
2022-11-25T12:25:07.464Z,87.00
2022-11-25T12:27:41.597Z,86.80
2022-11-25T12:30:14.800Z,86.20
2022-11-25T12:32:54.362Z,86.30
2022-11-25T12:35:32.426Z,85.50
2022-11-25T12:38:06.227Z,85.40
2022-11-25T12:40:41.863Z,85.50
2022-11-25T12:43:24.139Z,85.70
2022-11-25T12:46:04.510Z,86.00
2022-11-25T12:48:32.999Z,86.70
2022-11-25T12:51:08.366Z,86.00
2022-11-25T12:53:46.334Z,85.50
2022-11-25T12:56:20.964Z,85.90
2022-11-25T12:59:03.496Z,85.80
2022-11-25T13:01:50.409Z,85.80
2022-11-25T13:04:41.705Z,85.70
2022-11-25T13:07:28.409Z,85.70
2022-11-25T13:10:36.412Z,85.00
2022-11-25T13:13:18.520Z,85.30
2022-11-25T13:15:50.395Z,85.10
2022-11-25T13:18:21.394Z,85.00
2022-11-25T13:20:51.659Z,85.20
2022-11-25T13:23:33.676Z,85.10
2022-11-25T13:26:37.684Z,84.80
2022-11-25T13:29:42.056Z,84.80
2022-11-25T13:32:27.598Z,85.00
2022-11-25T13:35:37.823Z,84.50
2022-11-25T13:38:37.650Z,84.60
2022-11-25T13:41:24.290Z,84.90
2022-11-25T13:44:01.693Z,85.90
2022-11-25T13:46:39.612Z,86.20
2022-11-25T13:49:36.820Z,85.00
2022-11-25T13:52:24.404Z,84.60
2022-11-25T13:54:54.995Z,84.80
2022-11-25T13:57:29.460Z,85.00
2022-11-25T14:00:00.241Z,84.30
2022-11-25T14:02:41.896Z,84.10
2022-11-25T14:05:36.880Z,82.40
2022-11-25T14:08:17.056Z,82.10
2022-11-25T14:10:53.786Z,80.80
2022-11-25T14:13:39.234Z,80.40
2022-11-25T14:16:23.769Z,79.30
2022-11-25T14:19:43.201Z,78.10
2022-11-25T14:22:12.011Z,78.00
2022-11-25T14:24:43.667Z,77.10
2022-11-25T14:27:17.386Z,76.90
2022-11-25T14:29:51.878Z,77.10
2022-11-25T14:32:22.485Z,77.30
2022-11-25T14:34:58.043Z,77.10
2022-11-25T14:37:35.411Z,77.00
2022-11-25T14:40:09.497Z,77.20
2022-11-25T14:42:41.795Z,77.90
2022-11-25T14:45:22.851Z,77.60
2022-11-25T14:47:51.133Z,77.90
2022-11-25T14:50:34.173Z,77.80
2022-11-25T14:53:09.432Z,77.60
2022-11-25T14:55:39.074Z,77.90
2022-11-25T14:58:07.305Z,77.90
2022-11-25T15:00:35.590Z,78.00
2022-11-25T15:03:06.675Z,78.30
2022-11-25T15:05:36.394Z,78.60
2022-11-25T15:08:13.566Z,78.50
2022-11-25T15:10:44.866Z,78.20
2022-11-25T15:13:24.907Z,78.20
2022-11-25T15:15:55.849Z,78.60
2022-11-25T15:18:26.036Z,78.50
2022-11-25T15:20:59.245Z,78.70
2022-11-25T15:23:34.862Z,78.50
2022-11-25T15:26:05.533Z,79.00
2022-11-25T15:28:38.095Z,79.30
2022-11-25T15:31:11.005Z,79.60
2022-11-25T15:33:39.631Z,79.90
2022-11-25T15:36:08.480Z,80.10
2022-11-25T15:38:42.147Z,80.10
2022-11-25T15:41:20.954Z,80.00
2022-11-25T15:43:51.744Z,80.30
2022-11-25T15:46:20.187Z,83.20
2022-11-25T15:48:50.174Z,82.10
2022-11-25T15:51:35.515Z,81.10
2022-11-25T15:54:08.864Z,81.50
2022-11-25T15:56:39.982Z,80.50
2022-11-25T15:59:41.212Z,80.80
2022-11-25T16:02:38.575Z,80.90
2022-11-25T16:05:19.733Z,80.90
2022-11-25T16:08:24.706Z,80.60
2022-11-25T16:11:15.500Z,80.70
2022-11-25T16:13:43.693Z,81.00
2022-11-25T16:16:18.758Z,80.90
2022-11-25T16:18:57.013Z,80.80
2022-11-25T16:21:27.294Z,81.10
2022-11-25T16:23:59.024Z,81.10
2022-11-25T16:26:31.869Z,81.20
2022-11-25T16:29:03.246Z,81.50
2022-11-25T16:31:31.455Z,81.60
2022-11-25T16:34:14.569Z,80.70
2022-11-25T16:36:43.045Z,80.20
2022-11-25T16:39:11.250Z,79.70
2022-11-25T16:41:42.827Z,79.50
2022-11-25T16:44:18.658Z,79.60
2022-11-25T16:46:47.135Z,79.70
2022-11-25T16:49:16.988Z,80.40
2022-11-25T16:51:45.453Z,81.40
2022-11-25T16:54:13.844Z,80.50
2022-11-25T16:56:44.746Z,80.20
2022-11-25T16:59:16.800Z,80.00
2022-11-25T17:01:45.169Z,79.80
2022-11-25T17:04:14.158Z,80.00
2022-11-25T17:06:50.545Z,79.80
2022-11-25T17:09:32.336Z,78.60
2022-11-25T17:12:02.196Z,77.80
2022-11-25T17:14:32.515Z,77.50
2022-11-25T17:17:01.760Z,77.80
2022-11-25T17:19:30.979Z,78.30
2022-11-25T17:21:59.365Z,77.50
2022-11-25T17:24:28.402Z,78.60
2022-11-25T17:26:59.606Z,77.30
2022-11-25T17:29:33.821Z,78.40
2022-11-25T17:32:02.947Z,77.80
2022-11-25T17:34:34.993Z,79.50
2022-11-25T17:37:08.134Z,79.20
2022-11-25T17:39:36.652Z,78.40
2022-11-25T17:42:06.566Z,78.10
2022-11-25T17:44:37.303Z,78.30
2022-11-25T17:47:12.907Z,78.20
2022-11-25T17:49:41.808Z,78.70
2022-11-25T17:52:10.377Z,80.30
2022-11-25T17:54:38.823Z,80.80
2022-11-25T17:57:12.170Z,80.60
2022-11-25T17:59:42.668Z,79.70
2022-11-25T18:02:19.863Z,78.80
2022-11-25T18:04:48.179Z,78.70
2022-11-25T18:07:16.712Z,77.80
2022-11-25T18:09:45.562Z,77.50
2022-11-25T18:12:18.878Z,77.60
2022-11-25T18:14:48.583Z,76.70
2022-11-25T18:17:19.138Z,76.00
2022-11-25T18:19:54.454Z,75.90
2022-11-25T18:22:24.711Z,75.70
2022-11-25T18:24:53.823Z,75.80
2022-11-25T18:27:24.558Z,75.40
2022-11-25T18:29:55.078Z,76.10
2022-11-25T18:32:24.437Z,75.20
2022-11-25T18:34:53.306Z,75.30
2022-11-25T18:37:21.750Z,74.90
2022-11-25T18:39:49.964Z,76.50
2022-11-25T18:42:25.468Z,76.00
2022-11-25T18:44:57.216Z,74.20
2022-11-25T18:47:25.616Z,73.70
2022-11-25T18:49:56.222Z,73.70
2022-11-25T18:52:25.271Z,74.40
2022-11-25T18:54:53.709Z,73.50
2022-11-25T18:57:22.173Z,74.80
2022-11-25T19:00:10.728Z,74.60
2022-11-25T19:02:40.176Z,75.20
2022-11-25T19:05:18.869Z,74.20
2022-11-25T19:07:47.781Z,74.70
2022-11-25T19:10:16.932Z,75.00
2022-11-25T19:12:47.598Z,75.20
2022-11-25T19:15:18.347Z,75.80
2022-11-25T19:17:51.727Z,76.10
2022-11-25T19:20:23.234Z,76.10
2022-11-25T19:22:51.491Z,76.50
2022-11-25T19:25:19.661Z,76.70
2022-11-25T19:27:51.742Z,76.90
2022-11-25T19:30:23.315Z,77.50
2022-11-25T19:32:55.610Z,78.80
2022-11-25T19:35:30.706Z,79.70
2022-11-25T19:37:58.916Z,79.90
2022-11-25T19:40:27.036Z,80.00
2022-11-25T19:42:56.020Z,80.10
2022-11-25T19:45:24.359Z,80.80
2022-11-25T19:47:54.098Z,82.70
2022-11-25T19:50:24.245Z,82.30
2022-11-25T19:52:53.511Z,82.20
2022-11-25T19:55:23.270Z,81.20
2022-11-25T19:57:52.898Z,83.40
2022-11-25T20:00:22.646Z,86.20
2022-11-25T20:02:54.886Z,85.60
2022-11-25T20:05:27.683Z,84.20
2022-11-25T20:07:56.402Z,83.40
2022-11-25T20:10:26.282Z,82.90
2022-11-25T20:12:55.552Z,83.20
2022-11-25T20:15:24.653Z,84.70
2022-11-25T20:17:56.946Z,84.40
2022-11-25T20:20:28.052Z,84.70
2022-11-25T20:23:00.817Z,85.20
2022-11-25T20:25:29.078Z,84.70
2022-11-25T20:27:57.587Z,84.60
2022-11-25T20:30:27.382Z,84.70
2022-11-25T20:32:57.049Z,84.50
2022-11-25T20:35:26.912Z,84.30
2022-11-25T20:37:57.542Z,84.30
2022-11-25T20:40:33.377Z,84.40
2022-11-25T20:43:02.075Z,84.40
2022-11-25T20:45:31.110Z,84.80
2022-11-25T20:48:00.779Z,84.80
2022-11-25T20:50:30.708Z,84.80
2022-11-25T20:52:58.839Z,84.70
2022-11-25T20:55:27.391Z,84.40
2022-11-25T20:57:55.537Z,83.90
2022-11-25T21:00:25.616Z,83.80
2022-11-25T21:02:55.399Z,83.50
2022-11-25T21:05:25.213Z,83.40
2022-11-25T21:07:55.321Z,83.20
2022-11-25T21:10:27.293Z,83.20
2022-11-25T21:12:56.556Z,82.10
2022-11-25T21:15:27.506Z,83.00
2022-11-25T21:17:57.561Z,81.90
2022-11-25T21:20:27.510Z,81.70
2022-11-25T21:22:58.444Z,81.70
2022-11-25T21:25:27.296Z,81.90
2022-11-25T21:27:55.494Z,82.00
2022-11-25T21:30:25.535Z,81.50
2022-11-25T21:32:56.307Z,81.70
2022-11-25T21:35:30.697Z,81.30
2022-11-25T21:37:59.520Z,81.10
2022-11-25T21:40:38.909Z,81.10
2022-11-25T21:43:17.139Z,80.40
2022-11-25T21:45:49.483Z,80.30
2022-11-25T21:48:20.494Z,80.80
2022-11-25T21:50:50.772Z,80.70
2022-11-25T21:53:19.411Z,80.60
2022-11-25T21:55:48.577Z,81.00
2022-11-25T21:58:18.495Z,82.10
2022-11-25T22:00:49.961Z,82.80
2022-11-25T22:03:20.599Z,83.20
2022-11-25T22:05:51.389Z,82.80
2022-11-25T22:08:20.255Z,81.90
2022-11-25T22:10:51.534Z,82.20
2022-11-25T22:13:22.401Z,81.50
2022-11-25T22:15:55.155Z,81.90
2022-11-25T22:18:27.877Z,82.00
2022-11-25T22:20:57.511Z,82.40
2022-11-25T22:23:25.895Z,82.00
2022-11-25T22:25:54.603Z,81.40
2022-11-25T22:28:25.838Z,81.70
2022-11-25T22:30:55.729Z,81.90
2022-11-25T22:33:30.379Z,82.20
2022-11-25T22:36:00.477Z,83.10
2022-11-25T22:38:30.523Z,82.40
2022-11-25T22:41:02.245Z,82.40
2022-11-25T22:43:33.485Z,85.40
2022-11-25T22:46:02.082Z,84.40
2022-11-25T22:48:34.726Z,84.00
2022-11-25T22:51:04.781Z,85.00
2022-11-25T22:53:33.294Z,85.50
2022-11-25T22:56:01.690Z,84.30
2022-11-25T22:58:30.098Z,83.00
2022-11-25T23:00:58.405Z,82.30
2022-11-25T23:03:29.349Z,82.00
2022-11-25T23:05:58.718Z,81.60
2022-11-25T23:08:31.607Z,81.30
2022-11-25T23:11:00.627Z,81.40
2022-11-25T23:13:28.782Z,81.70
2022-11-25T23:15:59.600Z,82.00
2022-11-25T23:18:32.896Z,82.30
2022-11-25T23:21:05.979Z,82.60
2022-11-25T23:23:35.629Z,82.90
2022-11-25T23:26:03.937Z,83.00
2022-11-25T23:28:32.107Z,82.60
2022-11-25T23:31:02.314Z,82.50
2022-11-25T23:33:34.871Z,82.70
2022-11-25T23:36:07.596Z,82.90
2022-11-25T23:38:46.102Z,82.80
2022-11-25T23:41:16.710Z,82.80
2022-11-25T23:43:45.049Z,82.10
2022-11-25T23:46:15.920Z,81.40
2022-11-25T23:48:46.979Z,81.40
2022-11-25T23:51:15.445Z,81.00
2022-11-25T23:53:45.526Z,81.00
2022-11-25T23:56:14.141Z,81.80
2022-11-25T23:58:42.369Z,81.30
